sensor_id;sensor_type;location;lat;lon;timestamp;temperature;humidity
49222;DHT22;35047;37.588;-122.048;2024-02-21T00:00:09;17.20;96.70
49222;DHT22;35047;37.588;-122.048;2024-02-21T00:02:37;17.20;96.90
49222;DHT22;35047;37.588;-122.048;2024-02-21T00:05:04;17.20;96.80
49222;DHT22;35047;37.588;-122.048;2024-02-21T00:07:30;17.30;96.70
49222;DHT22;35047;37.588;-122.048;2024-02-21T00:09:57;17.30;96.70
49222;DHT22;35047;37.588;-122.048;2024-02-21T00:12:23;17.30;96.60
49222;DHT22;35047;37.588;-122.048;2024-02-21T00:14:50;17.30;96.80
49222;DHT22;35047;37.588;-122.048;2024-02-21T00:17:16;17.40;96.90
49222;DHT22;35047;37.588;-122.048;2024-02-21T00:19:43;17.40;96.90
49222;DHT22;35047;37.588;-122.048;2024-02-21T00:22:09;17.40;96.80
49222;DHT22;35047;37.588;-122.048;2024-02-21T00:24:36;17.40;96.70
49222;DHT22;35047;37.588;-122.048;2024-02-21T00:27:02;17.40;96.60
49222;DHT22;35047;37.588;-122.048;2024-02-21T00:29:29;17.40;96.60
49222;DHT22;35047;37.588;-122.048;2024-02-21T00:31:59;17.50;96.50
49222;DHT22;35047;37.588;-122.048;2024-02-21T00:34:25;17.50;96.40
49222;DHT22;35047;37.588;-122.048;2024-02-21T00:36:52;17.50;96.70
49222;DHT22;35047;37.588;-122.048;2024-02-21T00:39:18;17.50;96.90
49222;DHT22;35047;37.588;-122.048;2024-02-21T00:41:44;17.50;96.70
49222;DHT22;35047;37.588;-122.048;2024-02-21T00:44:11;17.60;96.40
49222;DHT22;35047;37.588;-122.048;2024-02-21T00:46:37;17.60;96.40
49222;DHT22;35047;37.588;-122.048;2024-02-21T00:49:04;17.60;95.90
49222;DHT22;35047;37.588;-122.048;2024-02-21T00:51:31;17.60;96.10
49222;DHT22;35047;37.588;-122.048;2024-02-21T00:53:57;17.70;96.20
49222;DHT22;35047;37.588;-122.048;2024-02-21T00:56:24;17.70;95.90
49222;DHT22;35047;37.588;-122.048;2024-02-21T00:58:50;17.70;95.70
49222;DHT22;35047;37.588;-122.048;2024-02-21T01:01:24;17.70;95.40
49222;DHT22;35047;37.588;-122.048;2024-02-21T01:03:51;17.70;95.10
49222;DHT22;35047;37.588;-122.048;2024-02-21T01:06:20;17.70;95.10
49222;DHT22;35047;37.588;-122.048;2024-02-21T01:08:47;17.70;94.90
49222;DHT22;35047;37.588;-122.048;2024-02-21T01:11:16;17.70;94.90
49222;DHT22;35047;37.588;-122.048;2024-02-21T01:13:43;17.70;95.10
49222;DHT22;35047;37.588;-122.048;2024-02-21T01:16:10;17.70;94.80
49222;DHT22;35047;37.588;-122.048;2024-02-21T01:18:40;17.60;94.90
49222;DHT22;35047;37.588;-122.048;2024-02-21T01:21:07;17.60;95.00
49222;DHT22;35047;37.588;-122.048;2024-02-21T01:23:37;17.60;94.90
49222;DHT22;35047;37.588;-122.048;2024-02-21T01:26:04;17.50;94.50
49222;DHT22;35047;37.588;-122.048;2024-02-21T01:28:31;17.50;94.60
49222;DHT22;35047;37.588;-122.048;2024-02-21T01:30:57;17.50;94.50
49222;DHT22;35047;37.588;-122.048;2024-02-21T01:33:24;17.40;94.50
49222;DHT22;35047;37.588;-122.048;2024-02-21T01:35:50;17.40;94.50
49222;DHT22;35047;37.588;-122.048;2024-02-21T01:38:17;17.40;94.50
49222;DHT22;35047;37.588;-122.048;2024-02-21T01:40:43;17.40;94.70
49222;DHT22;35047;37.588;-122.048;2024-02-21T01:43:18;17.40;94.70
49222;DHT22;35047;37.588;-122.048;2024-02-21T01:45:50;17.40;94.60
49222;DHT22;35047;37.588;-122.048;2024-02-21T01:48:21;17.40;94.50
49222;DHT22;35047;37.588;-122.048;2024-02-21T01:50:50;17.40;94.60
49222;DHT22;35047;37.588;-122.048;2024-02-21T01:53:27;17.40;94.70
49222;DHT22;35047;37.588;-122.048;2024-02-21T01:55:55;17.40;94.80
49222;DHT22;35047;37.588;-122.048;2024-02-21T01:58:22;17.40;94.80
49222;DHT22;35047;37.588;-122.048;2024-02-21T02:00:49;17.40;94.70
49222;DHT22;35047;37.588;-122.048;2024-02-21T02:03:17;17.40;94.80
49222;DHT22;35047;37.588;-122.048;2024-02-21T02:05:47;17.40;94.90
49222;DHT22;35047;37.588;-122.048;2024-02-21T02:08:18;17.40;94.90
49222;DHT22;35047;37.588;-122.048;2024-02-21T02:10:45;17.40;94.90
49222;DHT22;35047;37.588;-122.048;2024-02-21T02:13:12;17.40;95.30
49222;DHT22;35047;37.588;-122.048;2024-02-21T02:15:40;17.40;95.20
49222;DHT22;35047;37.588;-122.048;2024-02-21T02:18:07;17.40;95.20
49222;DHT22;35047;37.588;-122.048;2024-02-21T02:20:33;17.40;95.20
49222;DHT22;35047;37.588;-122.048;2024-02-21T02:25:58;17.40;95.10
49222;DHT22;35047;37.588;-122.048;2024-02-21T02:28:25;17.40;95.10
49222;DHT22;35047;37.588;-122.048;2024-02-21T02:30:51;17.40;95.00
49222;DHT22;35047;37.588;-122.048;2024-02-21T02:33:18;17.30;95.00
49222;DHT22;35047;37.588;-122.048;2024-02-21T02:35:44;17.30;95.00
49222;DHT22;35047;37.588;-122.048;2024-02-21T02:38:11;17.30;95.10
49222;DHT22;35047;37.588;-122.048;2024-02-21T02:40:38;17.30;95.10
49222;DHT22;35047;37.588;-122.048;2024-02-21T02:43:06;17.30;95.30
49222;DHT22;35047;37.588;-122.048;2024-02-21T02:45:33;17.30;95.40
49222;DHT22;35047;37.588;-122.048;2024-02-21T02:48:00;17.30;95.60
49222;DHT22;35047;37.588;-122.048;2024-02-21T02:50:27;17.30;95.60
49222;DHT22;35047;37.588;-122.048;2024-02-21T02:52:54;17.30;95.70
49222;DHT22;35047;37.588;-122.048;2024-02-21T02:55:21;17.30;95.70
49222;DHT22;35047;37.588;-122.048;2024-02-21T02:57:47;17.30;95.60
49222;DHT22;35047;37.588;-122.048;2024-02-21T03:00:14;17.40;95.60
49222;DHT22;35047;37.588;-122.048;2024-02-21T03:02:43;17.40;95.70
49222;DHT22;35047;37.588;-122.048;2024-02-21T03:05:15;17.30;95.60
49222;DHT22;35047;37.588;-122.048;2024-02-21T03:07:42;17.40;95.70
49222;DHT22;35047;37.588;-122.048;2024-02-21T03:10:10;17.40;95.70
49222;DHT22;35047;37.588;-122.048;2024-02-21T03:12:37;17.40;95.70
49222;DHT22;35047;37.588;-122.048;2024-02-21T03:15:04;17.40;95.60
49222;DHT22;35047;37.588;-122.048;2024-02-21T03:17:31;17.40;95.50
49222;DHT22;35047;37.588;-122.048;2024-02-21T03:20:03;17.40;95.50
49222;DHT22;35047;37.588;-122.048;2024-02-21T03:22:36;17.40;95.50
49222;DHT22;35047;37.588;-122.048;2024-02-21T03:25:03;17.40;95.50
49222;DHT22;35047;37.588;-122.048;2024-02-21T03:27:30;17.40;95.60
49222;DHT22;35047;37.588;-122.048;2024-02-21T03:29:56;17.40;95.60
49222;DHT22;35047;37.588;-122.048;2024-02-21T03:32:23;17.40;95.60
49222;DHT22;35047;37.588;-122.048;2024-02-21T03:34:49;17.40;95.50
49222;DHT22;35047;37.588;-122.048;2024-02-21T03:37:16;17.40;95.60
49222;DHT22;35047;37.588;-122.048;2024-02-21T03:39:42;17.40;95.60
49222;DHT22;35047;37.588;-122.048;2024-02-21T03:42:09;17.40;95.60
49222;DHT22;35047;37.588;-122.048;2024-02-21T03:44:36;17.40;95.60
49222;DHT22;35047;37.588;-122.048;2024-02-21T03:47:02;17.40;95.70
49222;DHT22;35047;37.588;-122.048;2024-02-21T03:49:29;17.40;95.70
49222;DHT22;35047;37.588;-122.048;2024-02-21T03:51:55;17.40;95.80
49222;DHT22;35047;37.588;-122.048;2024-02-21T03:54:22;17.30;95.80
49222;DHT22;35047;37.588;-122.048;2024-02-21T03:56:48;17.30;95.90
49222;DHT22;35047;37.588;-122.048;2024-02-21T03:59:15;17.20;96.00
49222;DHT22;35047;37.588;-122.048;2024-02-21T04:01:42;17.20;96.10
49222;DHT22;35047;37.588;-122.048;2024-02-21T04:04:09;17.20;96.10
49222;DHT22;35047;37.588;-122.048;2024-02-21T04:06:36;17.20;96.20
49222;DHT22;35047;37.588;-122.048;2024-02-21T04:09:02;17.10;96.40
49222;DHT22;35047;37.588;-122.048;2024-02-21T04:11:29;17.10;96.50
49222;DHT22;35047;37.588;-122.048;2024-02-21T04:13:55;17.20;96.70
49222;DHT22;35047;37.588;-122.048;2024-02-21T04:16:22;17.20;96.70
49222;DHT22;35047;37.588;-122.048;2024-02-21T04:18:48;17.20;96.70
49222;DHT22;35047;37.588;-122.048;2024-02-21T04:21:17;17.20;96.80
49222;DHT22;35047;37.588;-122.048;2024-02-21T04:23:43;17.20;96.70
49222;DHT22;35047;37.588;-122.048;2024-02-21T04:26:10;17.10;96.80
49222;DHT22;35047;37.588;-122.048;2024-02-21T04:28:36;17.10;96.90
49222;DHT22;35047;37.588;-122.048;2024-02-21T04:31:04;17.00;96.90
49222;DHT22;35047;37.588;-122.048;2024-02-21T04:33:30;17.10;97.00
49222;DHT22;35047;37.588;-122.048;2024-02-21T04:35:57;17.10;96.80
49222;DHT22;35047;37.588;-122.048;2024-02-21T04:38:24;17.10;97.30
49222;DHT22;35047;37.588;-122.048;2024-02-21T04:40:51;17.10;97.00
49222;DHT22;35047;37.588;-122.048;2024-02-21T04:43:17;17.10;96.90
49222;DHT22;35047;37.588;-122.048;2024-02-21T04:45:44;17.00;96.90
49222;DHT22;35047;37.588;-122.048;2024-02-21T04:48:10;17.00;96.90
49222;DHT22;35047;37.588;-122.048;2024-02-21T04:50:37;17.00;97.00
49222;DHT22;35047;37.588;-122.048;2024-02-21T04:53:03;17.00;97.20
49222;DHT22;35047;37.588;-122.048;2024-02-21T04:55:30;17.00;97.10
49222;DHT22;35047;37.588;-122.048;2024-02-21T04:57:56;17.10;97.10
49222;DHT22;35047;37.588;-122.048;2024-02-21T05:00:23;17.10;97.00
49222;DHT22;35047;37.588;-122.048;2024-02-21T05:02:50;17.10;96.80
49222;DHT22;35047;37.588;-122.048;2024-02-21T05:05:16;17.00;96.90
49222;DHT22;35047;37.588;-122.048;2024-02-21T05:07:43;17.00;97.00
49222;DHT22;35047;37.588;-122.048;2024-02-21T05:10:09;17.00;97.20
49222;DHT22;35047;37.588;-122.048;2024-02-21T05:12:39;17.10;97.20
49222;DHT22;35047;37.588;-122.048;2024-02-21T05:15:06;17.10;97.20
49222;DHT22;35047;37.588;-122.048;2024-02-21T05:17:32;17.10;97.20
49222;DHT22;35047;37.588;-122.048;2024-02-21T05:19:59;17.10;97.20
49222;DHT22;35047;37.588;-122.048;2024-02-21T05:22:25;17.10;97.10
49222;DHT22;35047;37.588;-122.048;2024-02-21T05:24:55;17.10;97.10
49222;DHT22;35047;37.588;-122.048;2024-02-21T05:27:21;17.10;97.00
49222;DHT22;35047;37.588;-122.048;2024-02-21T05:29:48;17.10;97.10
49222;DHT22;35047;37.588;-122.048;2024-02-21T05:32:15;17.20;97.00
49222;DHT22;35047;37.588;-122.048;2024-02-21T05:34:42;17.20;97.00
49222;DHT22;35047;37.588;-122.048;2024-02-21T05:37:08;17.20;96.90
49222;DHT22;35047;37.588;-122.048;2024-02-21T05:39:35;17.30;96.90
49222;DHT22;35047;37.588;-122.048;2024-02-21T05:42:01;17.30;96.90
49222;DHT22;35047;37.588;-122.048;2024-02-21T05:44:28;17.30;96.90
49222;DHT22;35047;37.588;-122.048;2024-02-21T05:46:54;17.30;96.90
49222;DHT22;35047;37.588;-122.048;2024-02-21T05:49:21;17.30;96.90
49222;DHT22;35047;37.588;-122.048;2024-02-21T05:51:48;17.30;96.90
49222;DHT22;35047;37.588;-122.048;2024-02-21T05:54:14;17.30;96.90
49222;DHT22;35047;37.588;-122.048;2024-02-21T05:56:45;17.30;96.90
49222;DHT22;35047;37.588;-122.048;2024-02-21T05:59:11;17.30;96.90
49222;DHT22;35047;37.588;-122.048;2024-02-21T06:01:38;17.30;96.80
49222;DHT22;35047;37.588;-122.048;2024-02-21T06:04:04;17.20;96.80
49222;DHT22;35047;37.588;-122.048;2024-02-21T06:06:31;17.20;97.00
49222;DHT22;35047;37.588;-122.048;2024-02-21T06:08:58;17.10;97.00
49222;DHT22;35047;37.588;-122.048;2024-02-21T06:11:25;17.10;97.20
49222;DHT22;35047;37.588;-122.048;2024-02-21T06:13:51;17.10;97.10
49222;DHT22;35047;37.588;-122.048;2024-02-21T06:16:18;17.10;97.10
49222;DHT22;35047;37.588;-122.048;2024-02-21T06:18:44;17.10;97.00
49222;DHT22;35047;37.588;-122.048;2024-02-21T06:21:11;17.10;97.00
49222;DHT22;35047;37.588;-122.048;2024-02-21T06:23:38;17.10;97.10
49222;DHT22;35047;37.588;-122.048;2024-02-21T06:26:04;17.10;96.90
49222;DHT22;35047;37.588;-122.048;2024-02-21T06:28:31;17.10;96.70
49222;DHT22;35047;37.588;-122.048;2024-02-21T06:30:58;17.10;96.50
49222;DHT22;35047;37.588;-122.048;2024-02-21T06:33:24;17.10;96.40
49222;DHT22;35047;37.588;-122.048;2024-02-21T06:35:51;17.00;96.10
49222;DHT22;35047;37.588;-122.048;2024-02-21T06:38:21;17.00;96.20
49222;DHT22;35047;37.588;-122.048;2024-02-21T06:40:47;17.00;96.20
49222;DHT22;35047;37.588;-122.048;2024-02-21T06:43:20;16.90;96.30
49222;DHT22;35047;37.588;-122.048;2024-02-21T06:45:47;17.00;96.30
49222;DHT22;35047;37.588;-122.048;2024-02-21T06:48:17;17.00;96.30
49222;DHT22;35047;37.588;-122.048;2024-02-21T06:50:44;17.00;96.20
49222;DHT22;35047;37.588;-122.048;2024-02-21T06:53:11;16.90;96.10
49222;DHT22;35047;37.588;-122.048;2024-02-21T06:55:37;17.00;96.10
49222;DHT22;35047;37.588;-122.048;2024-02-21T06:58:04;17.00;95.90
49222;DHT22;35047;37.588;-122.048;2024-02-21T07:00:30;16.90;95.80
49222;DHT22;35047;37.588;-122.048;2024-02-21T07:02:57;16.90;95.90
49222;DHT22;35047;37.588;-122.048;2024-02-21T07:05:24;16.80;95.90
49222;DHT22;35047;37.588;-122.048;2024-02-21T07:07:50;16.80;96.10
49222;DHT22;35047;37.588;-122.048;2024-02-21T07:10:17;16.80;96.20
49222;DHT22;35047;37.588;-122.048;2024-02-21T07:12:43;16.80;96.10
49222;DHT22;35047;37.588;-122.048;2024-02-21T07:15:10;16.80;96.10
49222;DHT22;35047;37.588;-122.048;2024-02-21T07:17:36;16.80;96.00
49222;DHT22;35047;37.588;-122.048;2024-02-21T07:20:03;16.80;95.80
49222;DHT22;35047;37.588;-122.048;2024-02-21T07:22:29;16.80;95.80
49222;DHT22;35047;37.588;-122.048;2024-02-21T07:24:56;16.80;95.70
49222;DHT22;35047;37.588;-122.048;2024-02-21T07:27:22;16.80;95.70
49222;DHT22;35047;37.588;-122.048;2024-02-21T07:29:54;16.70;95.60
49222;DHT22;35047;37.588;-122.048;2024-02-21T07:32:20;16.60;95.70
49222;DHT22;35047;37.588;-122.048;2024-02-21T07:34:47;16.60;95.80
49222;DHT22;35047;37.588;-122.048;2024-02-21T07:37:13;16.50;96.10
49222;DHT22;35047;37.588;-122.048;2024-02-21T07:39:41;16.60;96.10
49222;DHT22;35047;37.588;-122.048;2024-02-21T07:42:07;16.60;96.10
49222;DHT22;35047;37.588;-122.048;2024-02-21T07:44:34;16.60;96.00
49222;DHT22;35047;37.588;-122.048;2024-02-21T07:47:00;16.60;96.00
49222;DHT22;35047;37.588;-122.048;2024-02-21T07:49:27;16.60;95.90
49222;DHT22;35047;37.588;-122.048;2024-02-21T07:51:53;16.60;95.90
49222;DHT22;35047;37.588;-122.048;2024-02-21T07:54:20;16.60;96.00
49222;DHT22;35047;37.588;-122.048;2024-02-21T07:56:46;16.60;96.00
49222;DHT22;35047;37.588;-122.048;2024-02-21T07:59:13;16.60;96.00
49222;DHT22;35047;37.588;-122.048;2024-02-21T08:01:40;16.60;96.00
49222;DHT22;35047;37.588;-122.048;2024-02-21T08:04:07;16.60;96.00
49222;DHT22;35047;37.588;-122.048;2024-02-21T08:06:33;16.60;96.00
49222;DHT22;35047;37.588;-122.048;2024-02-21T08:09:00;16.60;96.00
49222;DHT22;35047;37.588;-122.048;2024-02-21T08:11:26;16.60;96.00
49222;DHT22;35047;37.588;-122.048;2024-02-21T08:13:53;16.60;95.90
49222;DHT22;35047;37.588;-122.048;2024-02-21T08:16:19;16.60;95.80
49222;DHT22;35047;37.588;-122.048;2024-02-21T08:18:46;16.50;95.70
49222;DHT22;35047;37.588;-122.048;2024-02-21T08:21:12;16.50;95.80
49222;DHT22;35047;37.588;-122.048;2024-02-21T08:23:39;16.50;95.60
49222;DHT22;35047;37.588;-122.048;2024-02-21T08:26:06;16.50;95.40
49222;DHT22;35047;37.588;-122.048;2024-02-21T08:28:32;16.40;95.20
49222;DHT22;35047;37.588;-122.048;2024-02-21T08:30:59;16.40;95.10
49222;DHT22;35047;37.588;-122.048;2024-02-21T08:33:25;16.40;95.00
49222;DHT22;35047;37.588;-122.048;2024-02-21T08:35:52;16.40;94.90
49222;DHT22;35047;37.588;-122.048;2024-02-21T08:38:18;16.30;94.90
49222;DHT22;35047;37.588;-122.048;2024-02-21T08:40:45;16.30;94.80
49222;DHT22;35047;37.588;-122.048;2024-02-21T08:43:11;16.30;94.80
49222;DHT22;35047;37.588;-122.048;2024-02-21T08:45:38;16.20;94.80
49222;DHT22;35047;37.588;-122.048;2024-02-21T08:48:05;16.20;94.80
49222;DHT22;35047;37.588;-122.048;2024-02-21T08:50:31;16.20;94.90
49222;DHT22;35047;37.588;-122.048;2024-02-21T08:52:58;16.10;94.80
49222;DHT22;35047;37.588;-122.048;2024-02-21T08:55:24;16.10;94.80
49222;DHT22;35047;37.588;-122.048;2024-02-21T08:57:51;16.10;94.70
49222;DHT22;35047;37.588;-122.048;2024-02-21T09:00:18;16.00;94.70
49222;DHT22;35047;37.588;-122.048;2024-02-21T09:02:47;16.00;94.60
49222;DHT22;35047;37.588;-122.048;2024-02-21T09:05:14;15.90;94.70
49222;DHT22;35047;37.588;-122.048;2024-02-21T09:07:40;15.90;94.70
49222;DHT22;35047;37.588;-122.048;2024-02-21T09:10:07;15.90;94.70
49222;DHT22;35047;37.588;-122.048;2024-02-21T09:12:34;15.90;94.60
49222;DHT22;35047;37.588;-122.048;2024-02-21T09:15:00;15.80;94.50
49222;DHT22;35047;37.588;-122.048;2024-02-21T09:17:27;15.80;94.50
49222;DHT22;35047;37.588;-122.048;2024-02-21T09:19:55;15.80;94.50
49222;DHT22;35047;37.588;-122.048;2024-02-21T09:22:25;15.70;94.50
49222;DHT22;35047;37.588;-122.048;2024-02-21T09:24:51;15.70;94.60
49222;DHT22;35047;37.588;-122.048;2024-02-21T09:27:18;15.70;94.50
49222;DHT22;35047;37.588;-122.048;2024-02-21T09:29:44;15.70;94.50
49222;DHT22;35047;37.588;-122.048;2024-02-21T09:32:11;15.70;94.40
49222;DHT22;35047;37.588;-122.048;2024-02-21T09:34:38;15.60;94.40
49222;DHT22;35047;37.588;-122.048;2024-02-21T09:37:05;15.60;94.50
49222;DHT22;35047;37.588;-122.048;2024-02-21T09:39:32;15.60;94.40
49222;DHT22;35047;37.588;-122.048;2024-02-21T09:42:05;15.60;94.40
49222;DHT22;35047;37.588;-122.048;2024-02-21T09:44:36;15.50;94.40
49222;DHT22;35047;37.588;-122.048;2024-02-21T09:47:07;15.40;94.70
49222;DHT22;35047;37.588;-122.048;2024-02-21T09:49:36;15.40;94.80
49222;DHT22;35047;37.588;-122.048;2024-02-21T09:52:07;15.40;94.90
49222;DHT22;35047;37.588;-122.048;2024-02-21T09:54:34;15.30;94.90
49222;DHT22;35047;37.588;-122.048;2024-02-21T09:57:01;15.30;94.90
49222;DHT22;35047;37.588;-122.048;2024-02-21T09:59:30;15.30;94.90
49222;DHT22;35047;37.588;-122.048;2024-02-21T10:01:57;15.30;94.80
49222;DHT22;35047;37.588;-122.048;2024-02-21T10:07:27;15.30;94.70
49222;DHT22;35047;37.588;-122.048;2024-02-21T10:10:03;15.20;94.60
49222;DHT22;35047;37.588;-122.048;2024-02-21T10:12:30;15.20;94.70
49222;DHT22;35047;37.588;-122.048;2024-02-21T10:15:06;15.20;94.70
49222;DHT22;35047;37.588;-122.048;2024-02-21T10:17:33;15.10;94.70
49222;DHT22;35047;37.588;-122.048;2024-02-21T10:20:09;15.00;94.80
49222;DHT22;35047;37.588;-122.048;2024-02-21T10:22:38;15.00;94.80
49222;DHT22;35047;37.588;-122.048;2024-02-21T10:25:12;14.90;94.80
49222;DHT22;35047;37.588;-122.048;2024-02-21T10:27:39;14.90;95.00
49222;DHT22;35047;37.588;-122.048;2024-02-21T10:30:08;14.90;95.00
49222;DHT22;35047;37.588;-122.048;2024-02-21T10:32:49;14.80;94.90
49222;DHT22;35047;37.588;-122.048;2024-02-21T10:35:29;14.80;95.10
49222;DHT22;35047;37.588;-122.048;2024-02-21T10:37:56;14.70;95.20
49222;DHT22;35047;37.588;-122.048;2024-02-21T10:40:27;14.70;95.20
49222;DHT22;35047;37.588;-122.048;2024-02-21T10:42:59;14.70;95.10
49222;DHT22;35047;37.588;-122.048;2024-02-21T10:45:35;14.70;95.00
49222;DHT22;35047;37.588;-122.048;2024-02-21T10:48:14;14.70;95.00
49222;DHT22;35047;37.588;-122.048;2024-02-21T10:50:57;14.70;94.90
49222;DHT22;35047;37.588;-122.048;2024-02-21T10:54:05;14.70;94.80
49222;DHT22;35047;37.588;-122.048;2024-02-21T10:56:39;14.70;94.80
49222;DHT22;35047;37.588;-122.048;2024-02-21T10:59:07;14.70;94.70
49222;DHT22;35047;37.588;-122.048;2024-02-21T11:01:34;14.60;94.60
49222;DHT22;35047;37.588;-122.048;2024-02-21T11:04:06;14.60;94.50
49222;DHT22;35047;37.588;-122.048;2024-02-21T11:06:35;14.60;94.60
49222;DHT22;35047;37.588;-122.048;2024-02-21T11:09:03;14.50;94.50
49222;DHT22;35047;37.588;-122.048;2024-02-21T11:11:34;14.50;94.60
49222;DHT22;35047;37.588;-122.048;2024-02-21T11:14:11;14.50;94.60
49222;DHT22;35047;37.588;-122.048;2024-02-21T11:16:39;14.40;94.50
49222;DHT22;35047;37.588;-122.048;2024-02-21T11:19:19;14.40;94.50
49222;DHT22;35047;37.588;-122.048;2024-02-21T11:21:46;14.40;94.70
49222;DHT22;35047;37.588;-122.048;2024-02-21T11:24:24;14.40;94.50
49222;DHT22;35047;37.588;-122.048;2024-02-21T11:26:51;14.30;94.40
49222;DHT22;35047;37.588;-122.048;2024-02-21T11:29:24;14.30;94.40
49222;DHT22;35047;37.588;-122.048;2024-02-21T11:31:55;14.30;94.40
49222;DHT22;35047;37.588;-122.048;2024-02-21T11:34:21;14.30;94.60
49222;DHT22;35047;37.588;-122.048;2024-02-21T11:36:49;14.30;94.90
49222;DHT22;35047;37.588;-122.048;2024-02-21T11:39:25;14.30;95.00
49222;DHT22;35047;37.588;-122.048;2024-02-21T11:42:04;14.30;95.00
49222;DHT22;35047;37.588;-122.048;2024-02-21T11:44:38;14.30;95.30
49222;DHT22;35047;37.588;-122.048;2024-02-21T11:47:06;14.30;95.50
49222;DHT22;35047;37.588;-122.048;2024-02-21T11:49:43;14.20;95.60
49222;DHT22;35047;37.588;-122.048;2024-02-21T11:52:11;14.20;95.90
49222;DHT22;35047;37.588;-122.048;2024-02-21T11:54:40;14.30;96.00
49222;DHT22;35047;37.588;-122.048;2024-02-21T11:57:07;14.30;96.10
49222;DHT22;35047;37.588;-122.048;2024-02-21T11:59:34;14.30;96.20
49222;DHT22;35047;37.588;-122.048;2024-02-21T12:02:01;14.30;96.20
49222;DHT22;35047;37.588;-122.048;2024-02-21T12:04:30;14.30;96.40
49222;DHT22;35047;37.588;-122.048;2024-02-21T12:06:58;14.30;96.40
49222;DHT22;35047;37.588;-122.048;2024-02-21T12:09:25;14.30;96.60
49222;DHT22;35047;37.588;-122.048;2024-02-21T12:12:02;14.30;96.60
49222;DHT22;35047;37.588;-122.048;2024-02-21T12:14:30;14.30;96.50
49222;DHT22;35047;37.588;-122.048;2024-02-21T12:17:00;14.30;96.30
49222;DHT22;35047;37.588;-122.048;2024-02-21T12:19:30;14.20;96.30
49222;DHT22;35047;37.588;-122.048;2024-02-21T12:22:01;14.30;96.20
49222;DHT22;35047;37.588;-122.048;2024-02-21T12:24:31;14.30;95.90
49222;DHT22;35047;37.588;-122.048;2024-02-21T12:26:58;14.20;95.90
49222;DHT22;35047;37.588;-122.048;2024-02-21T12:29:25;14.20;95.90
49222;DHT22;35047;37.588;-122.048;2024-02-21T12:31:52;14.10;95.90
49222;DHT22;35047;37.588;-122.048;2024-02-21T12:34:20;14.20;95.70
49222;DHT22;35047;37.588;-122.048;2024-02-21T12:36:48;14.20;95.60
49222;DHT22;35047;37.588;-122.048;2024-02-21T12:39:14;14.10;95.50
49222;DHT22;35047;37.588;-122.048;2024-02-21T12:41:42;14.10;95.50
49222;DHT22;35047;37.588;-122.048;2024-02-21T12:44:10;14.10;95.60
49222;DHT22;35047;37.588;-122.048;2024-02-21T12:46:38;14.10;95.60
49222;DHT22;35047;37.588;-122.048;2024-02-21T12:49:06;14.10;95.40
49222;DHT22;35047;37.588;-122.048;2024-02-21T12:51:35;14.10;95.30
49222;DHT22;35047;37.588;-122.048;2024-02-21T12:54:02;14.10;95.20
49222;DHT22;35047;37.588;-122.048;2024-02-21T12:56:29;14.10;95.10
49222;DHT22;35047;37.588;-122.048;2024-02-21T12:58:58;14.10;95.10
49222;DHT22;35047;37.588;-122.048;2024-02-21T13:01:26;14.10;95.00
49222;DHT22;35047;37.588;-122.048;2024-02-21T13:03:53;14.00;95.10
49222;DHT22;35047;37.588;-122.048;2024-02-21T13:06:20;14.00;95.00
49222;DHT22;35047;37.588;-122.048;2024-02-21T13:08:46;14.00;95.00
49222;DHT22;35047;37.588;-122.048;2024-02-21T13:11:13;13.90;94.90
49222;DHT22;35047;37.588;-122.048;2024-02-21T13:13:40;13.90;94.90
49222;DHT22;35047;37.588;-122.048;2024-02-21T13:16:07;13.90;94.90
49222;DHT22;35047;37.588;-122.048;2024-02-21T13:18:35;13.90;95.00
49222;DHT22;35047;37.588;-122.048;2024-02-21T13:21:04;13.80;95.00
49222;DHT22;35047;37.588;-122.048;2024-02-21T13:23:32;13.80;95.00
49222;DHT22;35047;37.588;-122.048;2024-02-21T13:25:58;13.80;95.00
49222;DHT22;35047;37.588;-122.048;2024-02-21T13:28:25;13.80;94.90
49222;DHT22;35047;37.588;-122.048;2024-02-21T13:30:51;13.80;94.90
49222;DHT22;35047;37.588;-122.048;2024-02-21T13:33:18;13.80;94.90
49222;DHT22;35047;37.588;-122.048;2024-02-21T13:35:45;13.80;94.90
49222;DHT22;35047;37.588;-122.048;2024-02-21T13:38:11;13.70;94.90
49222;DHT22;35047;37.588;-122.048;2024-02-21T13:40:38;13.70;94.90
49222;DHT22;35047;37.588;-122.048;2024-02-21T13:43:04;13.70;94.90
49222;DHT22;35047;37.588;-122.048;2024-02-21T13:45:31;13.70;94.90
49222;DHT22;35047;37.588;-122.048;2024-02-21T13:47:58;13.70;94.90
49222;DHT22;35047;37.588;-122.048;2024-02-21T13:50:30;13.60;94.80
49222;DHT22;35047;37.588;-122.048;2024-02-21T13:53:08;13.60;94.80
49222;DHT22;35047;37.588;-122.048;2024-02-21T13:55:35;13.60;94.90
49222;DHT22;35047;37.588;-122.048;2024-02-21T13:58:02;13.60;94.80
49222;DHT22;35047;37.588;-122.048;2024-02-21T14:00:29;13.60;94.80
49222;DHT22;35047;37.588;-122.048;2024-02-21T14:02:56;13.50;94.80
49222;DHT22;35047;37.588;-122.048;2024-02-21T14:05:24;13.50;94.80
49222;DHT22;35047;37.588;-122.048;2024-02-21T14:07:50;13.50;94.70
49222;DHT22;35047;37.588;-122.048;2024-02-21T14:10:17;13.50;94.80
49222;DHT22;35047;37.588;-122.048;2024-02-21T14:12:44;13.40;94.70
49222;DHT22;35047;37.588;-122.048;2024-02-21T14:15:11;13.40;94.80
49222;DHT22;35047;37.588;-122.048;2024-02-21T14:17:37;13.40;94.80
49222;DHT22;35047;37.588;-122.048;2024-02-21T14:20:08;13.30;94.80
49222;DHT22;35047;37.588;-122.048;2024-02-21T14:22:35;13.30;94.80
49222;DHT22;35047;37.588;-122.048;2024-02-21T14:25:04;13.30;94.90
49222;DHT22;35047;37.588;-122.048;2024-02-21T14:27:33;13.30;94.80
49222;DHT22;35047;37.588;-122.048;2024-02-21T14:30:03;13.30;94.80
49222;DHT22;35047;37.588;-122.048;2024-02-21T14:32:29;13.30;94.90
49222;DHT22;35047;37.588;-122.048;2024-02-21T14:34:56;13.30;94.80
49222;DHT22;35047;37.588;-122.048;2024-02-21T14:37:22;13.30;94.80
49222;DHT22;35047;37.588;-122.048;2024-02-21T14:39:49;13.30;94.70
49222;DHT22;35047;37.588;-122.048;2024-02-21T14:42:16;13.20;94.70
49222;DHT22;35047;37.588;-122.048;2024-02-21T14:44:43;13.20;95.00
49222;DHT22;35047;37.588;-122.048;2024-02-21T14:47:10;13.20;94.80
49222;DHT22;35047;37.588;-122.048;2024-02-21T14:49:36;13.10;94.70
49222;DHT22;35047;37.588;-122.048;2024-02-21T14:52:03;13.10;94.80
49222;DHT22;35047;37.588;-122.048;2024-02-21T14:54:30;13.20;94.80
49222;DHT22;35047;37.588;-122.048;2024-02-21T14:56:56;13.10;94.80